sensor_id;sensor_type;location;lat;lon;timestamp;pressure;altitude;pressure_sealevel;temperature;humidity
41712;BME280;27399;51.516;13.670;2023-03-18T00:02:19;100085.44;;;9.24;59.75
41712;BME280;27399;51.516;13.670;2023-03-18T00:04:46;100078.41;;;9.19;60.25
41712;BME280;27399;51.516;13.670;2023-03-18T00:07:11;100080.97;;;9.26;60.33
41712;BME280;27399;51.516;13.670;2023-03-18T00:09:37;100082.84;;;9.17;60.14
41712;BME280;27399;51.516;13.670;2023-03-18T00:12:03;100077.56;;;9.12;61.38
41712;BME280;27399;51.516;13.670;2023-03-18T00:14:30;100070.41;;;9.20;59.63
41712;BME280;27399;51.516;13.670;2023-03-18T00:16:55;100067.69;;;9.25;59.99
41712;BME280;27399;51.516;13.670;2023-03-18T00:19:21;100065.91;;;9.27;56.87
41712;BME280;27399;51.516;13.670;2023-03-18T00:21:49;100067.59;;;9.37;55.63
41712;BME280;27399;51.516;13.670;2023-03-18T00:24:14;100058.81;;;9.26;55.97
41712;BME280;27399;51.516;13.670;2023-03-18T00:26:41;100057.75;;;9.45;55.91
41712;BME280;27399;51.516;13.670;2023-03-18T00:29:08;100065.72;;;9.45;57.14
41712;BME280;27399;51.516;13.670;2023-03-18T00:31:34;100062.16;;;9.48;57.03
41712;BME280;27399;51.516;13.670;2023-03-18T00:34:00;100072.00;;;9.37;55.33
41712;BME280;27399;51.516;13.670;2023-03-18T00:36:25;100072.72;;;9.56;53.32
41712;BME280;27399;51.516;13.670;2023-03-18T00:38:53;100077.97;;;9.65;53.04
41712;BME280;27399;51.516;13.670;2023-03-18T00:41:25;100085.13;;;9.60;52.40
41712;BME280;27399;51.516;13.670;2023-03-18T00:43:51;100068.19;;;9.67;52.03
41712;BME280;27399;51.516;13.670;2023-03-18T00:46:26;100070.53;;;9.95;52.47
41712;BME280;27399;51.516;13.670;2023-03-18T00:48:56;100079.50;;;9.88;51.88
41712;BME280;27399;51.516;13.670;2023-03-18T00:51:25;100065.25;;;9.90;52.02
41712;BME280;27399;51.516;13.670;2023-03-18T00:53:54;100065.16;;;10.01;52.45
41712;BME280;27399;51.516;13.670;2023-03-18T00:56:22;100067.72;;;10.07;52.00
41712;BME280;27399;51.516;13.670;2023-03-18T00:58:49;100061.50;;;10.08;52.13
41712;BME280;27399;51.516;13.670;2023-03-18T01:01:17;100072.16;;;10.08;51.91
41712;BME280;27399;51.516;13.670;2023-03-18T01:03:43;100060.72;;;10.00;51.35
41712;BME280;27399;51.516;13.670;2023-03-18T01:06:15;100056.38;;;9.91;51.93
41712;BME280;27399;51.516;13.670;2023-03-18T01:08:42;100054.53;;;9.95;51.95
41712;BME280;27399;51.516;13.670;2023-03-18T01:11:08;100046.72;;;9.81;51.58
41712;BME280;27399;51.516;13.670;2023-03-18T01:13:35;100042.28;;;9.82;51.38
41712;BME280;27399;51.516;13.670;2023-03-18T01:16:02;100046.41;;;10.09;51.75
41712;BME280;27399;51.516;13.670;2023-03-18T01:18:28;100043.63;;;10.17;52.32
41712;BME280;27399;51.516;13.670;2023-03-18T01:20:54;100040.44;;;9.87;51.57
41712;BME280;27399;51.516;13.670;2023-03-18T01:23:20;100049.88;;;10.14;51.23
41712;BME280;27399;51.516;13.670;2023-03-18T01:25:46;100040.53;;;9.79;51.36
41712;BME280;27399;51.516;13.670;2023-03-18T01:28:12;100039.38;;;10.02;51.50
41712;BME280;27399;51.516;13.670;2023-03-18T01:30:39;100041.19;;;10.00;51.23
41712;BME280;27399;51.516;13.670;2023-03-18T01:33:05;100037.56;;;10.04;52.50
41712;BME280;27399;51.516;13.670;2023-03-18T01:35:35;100037.66;;;9.96;54.42
41712;BME280;27399;51.516;13.670;2023-03-18T01:38:03;100046.56;;;9.95;51.33
41712;BME280;27399;51.516;13.670;2023-03-18T01:40:32;100047.28;;;10.10;51.56
41712;BME280;27399;51.516;13.670;2023-03-18T01:43:14;100041.84;;;10.17;53.50
41712;BME280;27399;51.516;13.670;2023-03-18T01:45:45;100044.72;;;10.00;51.79
41712;BME280;27399;51.516;13.670;2023-03-18T01:48:17;100042.91;;;10.04;53.61
41712;BME280;27399;51.516;13.670;2023-03-18T01:50:46;100042.78;;;10.15;52.07
41712;BME280;27399;51.516;13.670;2023-03-18T01:53:14;100048.13;;;10.13;51.06
41712;BME280;27399;51.516;13.670;2023-03-18T01:55:42;100043.13;;;9.85;52.36
41712;BME280;27399;51.516;13.670;2023-03-18T01:58:23;100047.47;;;9.94;51.49
41712;BME280;27399;51.516;13.670;2023-03-18T02:01:03;100050.97;;;9.99;52.02
41712;BME280;27399;51.516;13.670;2023-03-18T02:03:31;100045.84;;;9.81;51.65
41712;BME280;27399;51.516;13.670;2023-03-18T02:05:58;100050.19;;;9.88;51.21
41712;BME280;27399;51.516;13.670;2023-03-18T02:08:24;100044.75;;;9.99;50.97
41712;BME280;27399;51.516;13.670;2023-03-18T02:10:50;100051.03;;;9.91;51.11
41712;BME280;27399;51.516;13.670;2023-03-18T02:13:17;100051.03;;;9.93;51.43
41712;BME280;27399;51.516;13.670;2023-03-18T02:15:58;100053.00;;;9.77;51.66
41712;BME280;27399;51.516;13.670;2023-03-18T02:18:36;100047.38;;;10.03;51.21
41712;BME280;27399;51.516;13.670;2023-03-18T02:21:36;100049.59;;;9.63;51.26
41712;BME280;27399;51.516;13.670;2023-03-18T02:27:01;100060.09;;;9.78;51.97
41712;BME280;27399;51.516;13.670;2023-03-18T02:29:30;100054.88;;;9.67;51.44
41712;BME280;27399;51.516;13.670;2023-03-18T02:32:00;100065.50;;;9.67;51.35
41712;BME280;27399;51.516;13.670;2023-03-18T02:34:28;100069.13;;;9.61;51.57
41712;BME280;27399;51.516;13.670;2023-03-18T02:36:54;100059.22;;;9.74;51.61
41712;BME280;27399;51.516;13.670;2023-03-18T02:39:21;100060.09;;;9.76;51.17
41712;BME280;27399;51.516;13.670;2023-03-18T02:41:46;100066.31;;;9.75;51.64
41712;BME280;27399;51.516;13.670;2023-03-18T02:44:12;100068.78;;;9.94;51.44
41712;BME280;27399;51.516;13.670;2023-03-18T02:46:53;100073.19;;;9.95;51.30
41712;BME280;27399;51.516;13.670;2023-03-18T02:49:22;100066.97;;;9.96;51.54
41712;BME280;27399;51.516;13.670;2023-03-18T02:51:49;100074.25;;;9.82;51.60
41712;BME280;27399;51.516;13.670;2023-03-18T02:54:25;100077.50;;;10.05;51.90
41712;BME280;27399;51.516;13.670;2023-03-18T02:56:52;100067.88;;;9.97;51.72
41712;BME280;27399;51.516;13.670;2023-03-18T02:59:18;100079.38;;;9.97;51.63
41712;BME280;27399;51.516;13.670;2023-03-18T03:01:47;100075.91;;;9.92;51.32
41712;BME280;27399;51.516;13.670;2023-03-18T03:04:14;100070.63;;;9.89;52.32
41712;BME280;27399;51.516;13.670;2023-03-18T03:06:41;100076.91;;;9.80;52.16
41712;BME280;27399;51.516;13.670;2023-03-18T03:09:08;100073.38;;;9.80;52.12
41712;BME280;27399;51.516;13.670;2023-03-18T03:11:38;100080.44;;;9.82;51.70
41712;BME280;27399;51.516;13.670;2023-03-18T03:14:04;100069.03;;;9.72;52.27
41712;BME280;27399;51.516;13.670;2023-03-18T03:16:30;100080.34;;;9.91;52.23
41712;BME280;27399;51.516;13.670;2023-03-18T03:18:56;100083.06;;;9.87;53.28
41712;BME280;27399;51.516;13.670;2023-03-18T03:21:21;100078.72;;;9.76;52.58
41712;BME280;27399;51.516;13.670;2023-03-18T03:23:47;100082.47;;;9.58;52.44
41712;BME280;27399;51.516;13.670;2023-03-18T03:26:14;100089.44;;;9.72;53.91
41712;BME280;27399;51.516;13.670;2023-03-18T03:28:40;100090.50;;;9.54;52.43
41712;BME280;27399;51.516;13.670;2023-03-18T03:31:07;100080.47;;;9.81;53.44
41712;BME280;27399;51.516;13.670;2023-03-18T03:33:37;100081.56;;;9.61;55.76
41712;BME280;27399;51.516;13.670;2023-03-18T03:36:06;100089.34;;;9.80;53.18
41712;BME280;27399;51.516;13.670;2023-03-18T03:38:32;100085.00;;;9.72;53.95
41712;BME280;27399;51.516;13.670;2023-03-18T03:40:57;100095.88;;;9.48;52.54
41712;BME280;27399;51.516;13.670;2023-03-18T03:43:23;100093.88;;;9.70;53.98
41712;BME280;27399;51.516;13.670;2023-03-18T03:45:49;100080.69;;;9.62;53.62
41712;BME280;27399;51.516;13.670;2023-03-18T03:48:15;100101.03;;;9.66;53.44
41712;BME280;27399;51.516;13.670;2023-03-18T03:50:40;100112.03;;;9.29;54.42
41712;BME280;27399;51.516;13.670;2023-03-18T03:53:06;100100.25;;;9.56;52.99
41712;BME280;27399;51.516;13.670;2023-03-18T03:55:32;100116.09;;;9.70;52.99
41712;BME280;27399;51.516;13.670;2023-03-18T03:57:58;100103.78;;;9.57;52.37
41712;BME280;27399;51.516;13.670;2023-03-18T04:00:24;100106.31;;;9.72;52.91
41712;BME280;27399;51.516;13.670;2023-03-18T04:02:51;100108.34;;;9.42;53.58
41712;BME280;27399;51.516;13.670;2023-03-18T04:05:19;100107.28;;;9.64;53.28
41712;BME280;27399;51.516;13.670;2023-03-18T04:07:46;100114.28;;;9.71;52.84
41712;BME280;27399;51.516;13.670;2023-03-18T04:10:13;100109.97;;;9.59;54.24
41712;BME280;27399;51.516;13.670;2023-03-18T04:12:41;100116.25;;;9.50;52.80
41712;BME280;27399;51.516;13.670;2023-03-18T04:15:07;100114.47;;;9.52;53.66
41712;BME280;27399;51.516;13.670;2023-03-18T04:17:34;100109.97;;;9.62;53.45
41712;BME280;27399;51.516;13.670;2023-03-18T04:20:00;100126.84;;;9.61;53.07
41712;BME280;27399;51.516;13.670;2023-03-18T04:22:26;100116.13;;;9.66;52.75
41712;BME280;27399;51.516;13.670;2023-03-18T04:24:52;100116.09;;;9.67;53.17
41712;BME280;27399;51.516;13.670;2023-03-18T04:27:17;100115.28;;;9.60;52.99
41712;BME280;27399;51.516;13.670;2023-03-18T04:29:43;100118.16;;;9.37;55.77
41712;BME280;27399;51.516;13.670;2023-03-18T04:32:10;100109.97;;;9.59;53.62
41712;BME280;27399;51.516;13.670;2023-03-18T04:34:36;100117.16;;;9.51;53.65
41712;BME280;27399;51.516;13.670;2023-03-18T04:37:02;100125.34;;;9.29;53.49
41712;BME280;27399;51.516;13.670;2023-03-18T04:39:28;100128.88;;;9.31;54.66
41712;BME280;27399;51.516;13.670;2023-03-18T04:41:55;100120.72;;;9.46;53.00
41712;BME280;27399;51.516;13.670;2023-03-18T04:44:22;100123.38;;;9.48;53.47
41712;BME280;27399;51.516;13.670;2023-03-18T04:46:48;100113.63;;;9.47;53.57
41712;BME280;27399;51.516;13.670;2023-03-18T04:49:14;100127.81;;;9.51;53.91
41712;BME280;27399;51.516;13.670;2023-03-18T04:51:40;100135.94;;;9.32;53.64
41712;BME280;27399;51.516;13.670;2023-03-18T04:54:05;100136.94;;;9.19;54.68
41712;BME280;27399;51.516;13.670;2023-03-18T04:56:32;100129.88;;;9.14;53.62
41712;BME280;27399;51.516;13.670;2023-03-18T04:58:58;100135.00;;;9.38;54.26
41712;BME280;27399;51.516;13.670;2023-03-18T05:01:24;100129.91;;;9.08;56.49
41712;BME280;27399;51.516;13.670;2023-03-18T05:03:50;100126.31;;;9.12;57.38
41712;BME280;27399;51.516;13.670;2023-03-18T05:06:27;100127.19;;;9.14;56.78
41712;BME280;27399;51.516;13.670;2023-03-18T05:08:53;100126.31;;;9.15;57.74
41712;BME280;27399;51.516;13.670;2023-03-18T05:11:19;100128.28;;;8.87;55.10
41712;BME280;27399;51.516;13.670;2023-03-18T05:13:46;100131.88;;;8.80;57.04
41712;BME280;27399;51.516;13.670;2023-03-18T05:16:12;100133.66;;;8.76;58.09
41712;BME280;27399;51.516;13.670;2023-03-18T05:18:38;100134.41;;;9.02;55.69
41712;BME280;27399;51.516;13.670;2023-03-18T05:21:06;100124.59;;;9.08;54.60
41712;BME280;27399;51.516;13.670;2023-03-18T05:23:32;100137.91;;;9.02;56.73
41712;BME280;27399;51.516;13.670;2023-03-18T05:25:58;100130.06;;;8.83;54.34
41712;BME280;27399;51.516;13.670;2023-03-18T05:28:24;100132.72;;;8.85;55.68
41712;BME280;27399;51.516;13.670;2023-03-18T05:30:50;100148.75;;;8.71;55.20
41712;BME280;27399;51.516;13.670;2023-03-18T05:33:17;100143.44;;;8.71;56.75
41712;BME280;27399;51.516;13.670;2023-03-18T05:35:42;100136.38;;;8.67;55.62
41712;BME280;27399;51.516;13.670;2023-03-18T05:38:08;100133.69;;;8.72;55.42
41712;BME280;27399;51.516;13.670;2023-03-18T05:40:34;100130.03;;;8.91;56.10
41712;BME280;27399;51.516;13.670;2023-03-18T05:43:00;100136.28;;;8.86;56.95
41712;BME280;27399;51.516;13.670;2023-03-18T05:45:26;100137.06;;;8.95;56.35
41712;BME280;27399;51.516;13.670;2023-03-18T05:47:52;100134.47;;;8.92;57.25
41712;BME280;27399;51.516;13.670;2023-03-18T05:50:36;100135.34;;;8.90;56.10
41712;BME280;27399;51.516;13.670;2023-03-18T05:53:03;100138.03;;;8.88;56.23
41712;BME280;27399;51.516;13.670;2023-03-18T05:55:30;100143.28;;;8.94;57.10
41712;BME280;27399;51.516;13.670;2023-03-18T05:57:56;100146.13;;;8.65;59.13
41712;BME280;27399;51.516;13.670;2023-03-18T06:00:23;100146.81;;;9.03;55.61
41712;BME280;27399;51.516;13.670;2023-03-18T06:02:50;100153.03;;;8.98;56.12
41712;BME280;27399;51.516;13.670;2023-03-18T06:05:20;100152.09;;;9.04;55.80
41712;BME280;27399;51.516;13.670;2023-03-18T06:07:46;100158.38;;;8.94;59.17
41712;BME280;27399;51.516;13.670;2023-03-18T06:10:13;100161.00;;;9.02;58.50
41712;BME280;27399;51.516;13.670;2023-03-18T06:12:39;100161.09;;;8.78;56.98
41712;BME280;27399;51.516;13.670;2023-03-18T06:15:07;100157.47;;;8.95;55.53
41712;BME280;27399;51.516;13.670;2023-03-18T06:17:33;100159.38;;;8.74;56.17
41712;BME280;27399;51.516;13.670;2023-03-18T06:19:59;100157.50;;;8.90;58.54
41712;BME280;27399;51.516;13.670;2023-03-18T06:22:25;100159.25;;;8.96;55.82
41712;BME280;27399;51.516;13.670;2023-03-18T06:24:51;100165.38;;;9.07;55.64
41712;BME280;27399;51.516;13.670;2023-03-18T06:27:17;100153.09;;;8.89;56.87
41712;BME280;27399;51.516;13.670;2023-03-18T06:29:43;100151.22;;;9.02;55.55
41712;BME280;27399;51.516;13.670;2023-03-18T06:32:09;100168.88;;;9.15;55.29
41712;BME280;27399;51.516;13.670;2023-03-18T06:34:35;100167.13;;;9.11;56.33
41712;BME280;27399;51.516;13.670;2023-03-18T06:37:01;100161.75;;;9.22;55.67
41712;BME280;27399;51.516;13.670;2023-03-18T06:39:28;100160.69;;;9.45;55.27
41712;BME280;27399;51.516;13.670;2023-03-18T06:41:54;100159.97;;;9.21;55.63
41712;BME280;27399;51.516;13.670;2023-03-18T06:44:21;100161.78;;;9.16;55.11
41712;BME280;27399;51.516;13.670;2023-03-18T06:46:46;100162.50;;;9.38;55.41
41712;BME280;27399;51.516;13.670;2023-03-18T06:49:12;100156.16;;;9.55;54.90
41712;BME280;27399;51.516;13.670;2023-03-18T06:51:40;100157.84;;;9.65;55.28
41712;BME280;27399;51.516;13.670;2023-03-18T06:54:05;100164.16;;;9.56;55.46
41712;BME280;27399;51.516;13.670;2023-03-18T06:56:32;100164.13;;;9.58;54.96
41712;BME280;27399;51.516;13.670;2023-03-18T06:59:02;100164.00;;;9.73;54.79
41712;BME280;27399;51.516;13.670;2023-03-18T07:01:28;100167.63;;;9.63;55.00
41712;BME280;27399;51.516;13.670;2023-03-18T07:03:55;100170.03;;;9.94;55.07
41712;BME280;27399;51.516;13.670;2023-03-18T07:06:20;100166.56;;;9.81;54.87
41712;BME280;27399;51.516;13.670;2023-03-18T07:08:46;100169.06;;;9.98;55.61
41712;BME280;27399;51.516;13.670;2023-03-18T07:11:12;100163.81;;;9.92;55.49
41712;BME280;27399;51.516;13.670;2023-03-18T07:13:38;100173.41;;;10.10;55.69
41712;BME280;27399;51.516;13.670;2023-03-18T07:16:03;100167.84;;;10.30;55.15
41712;BME280;27399;51.516;13.670;2023-03-18T07:18:29;100175.13;;;10.14;55.02
41712;BME280;27399;51.516;13.670;2023-03-18T07:20:55;100180.38;;;10.22;54.81
41712;BME280;27399;51.516;13.670;2023-03-18T07:23:21;100173.13;;;10.36;55.23
41712;BME280;27399;51.516;13.670;2023-03-18T07:25:46;100169.59;;;10.33;54.76
41712;BME280;27399;51.516;13.670;2023-03-18T07:28:12;100181.28;;;10.21;55.77
41712;BME280;27399;51.516;13.670;2023-03-18T07:30:37;100182.28;;;10.07;55.60
41712;BME280;27399;51.516;13.670;2023-03-18T07:33:04;100172.50;;;10.13;55.28
41712;BME280;27399;51.516;13.670;2023-03-18T07:35:30;100185.47;;;10.47;55.75
41712;BME280;27399;51.516;13.670;2023-03-18T07:37:56;100186.16;;;10.61;55.39
41712;BME280;27399;51.516;13.670;2023-03-18T07:40:22;100181.69;;;10.66;55.15
41712;BME280;27399;51.516;13.670;2023-03-18T07:42:48;100192.50;;;10.54;55.37
41712;BME280;27399;51.516;13.670;2023-03-18T07:45:16;100197.03;;;10.44;55.29
41712;BME280;27399;51.516;13.670;2023-03-18T07:47:42;100204.88;;;10.57;55.61
41712;BME280;27399;51.516;13.670;2023-03-18T07:50:08;100196.81;;;10.64;55.08
41712;BME280;27399;51.516;13.670;2023-03-18T07:52:34;100193.94;;;10.80;55.40
41712;BME280;27399;51.516;13.670;2023-03-18T07:55:00;100194.19;;;10.60;55.26
41712;BME280;27399;51.516;13.670;2023-03-18T07:57:26;100199.09;;;10.92;55.37
41712;BME280;27399;51.516;13.670;2023-03-18T07:59:52;100198.06;;;11.04;55.47
41712;BME280;27399;51.516;13.670;2023-03-18T08:02:17;100206.81;;;11.15;54.97
41712;BME280;27399;51.516;13.670;2023-03-18T08:04:44;100209.47;;;11.14;54.90
41712;BME280;27399;51.516;13.670;2023-03-18T08:07:11;100203.31;;;11.10;55.23
41712;BME280;27399;51.516;13.670;2023-03-18T08:09:37;100198.06;;;11.04;54.91
41712;BME280;27399;51.516;13.670;2023-03-18T08:12:03;100204.09;;;11.17;54.96
41712;BME280;27399;51.516;13.670;2023-03-18T08:14:28;100212.00;;;11.25;54.61
41712;BME280;27399;51.516;13.670;2023-03-18T08:16:54;100206.53;;;11.32;54.87
41712;BME280;27399;51.516;13.670;2023-03-18T08:19:20;100218.09;;;11.35;55.32
41712;BME280;27399;51.516;13.670;2023-03-18T08:21:46;100216.13;;;11.46;55.29
41712;BME280;27399;51.516;13.670;2023-03-18T08:24:12;100210.13;;;11.31;55.58
41712;BME280;27399;51.516;13.670;2023-03-18T08:26:38;100212.81;;;11.31;54.64
41712;BME280;27399;51.516;13.670;2023-03-18T08:29:04;100205.63;;;11.35;55.08
41712;BME280;27399;51.516;13.670;2023-03-18T08:31:30;100216.38;;;11.30;54.89
41712;BME280;27399;51.516;13.670;2023-03-18T08:33:56;100216.25;;;11.40;55.14
41712;BME280;27399;51.516;13.670;2023-03-18T08:36:23;100217.06;;;11.43;54.87
41712;BME280;27399;51.516;13.670;2023-03-18T08:38:49;100220.91;;;11.25;55.75
41712;BME280;27399;51.516;13.670;2023-03-18T08:41:15;100220.69;;;11.39;55.58
41712;BME280;27399;51.516;13.670;2023-03-18T08:43:41;100221.44;;;11.49;55.41
41712;BME280;27399;51.516;13.670;2023-03-18T08:46:07;100223.06;;;11.59;54.97
41712;BME280;27399;51.516;13.670;2023-03-18T08:48:33;100222.78;;;11.75;55.51
41712;BME280;27399;51.516;13.670;2023-03-18T08:51:03;100228.66;;;11.99;55.23
41712;BME280;27399;51.516;13.670;2023-03-18T08:53:29;100221.91;;;11.74;55.03
41712;BME280;27399;51.516;13.670;2023-03-18T08:55:55;100219.22;;;11.76;55.40
41712;BME280;27399;51.516;13.670;2023-03-18T08:58:20;100225.31;;;11.86;55.66
41712;BME280;27399;51.516;13.670;2023-03-18T09:00:46;100222.66;;;11.83;55.63
41712;BME280;27399;51.516;13.670;2023-03-18T09:03:12;100229.31;;;12.13;54.97
41712;BME280;27399;51.516;13.670;2023-03-18T09:05:38;100231.34;;;12.00;55.26
41712;BME280;27399;51.516;13.670;2023-03-18T09:08:04;100227.50;;;12.15;55.26
41712;BME280;27399;51.516;13.670;2023-03-18T09:10:30;100232.28;;;12.46;55.27
41712;BME280;27399;51.516;13.670;2023-03-18T09:12:56;100236.00;;;12.37;54.85
41712;BME280;27399;51.516;13.670;2023-03-18T09:15:22;100239.22;;;12.55;54.94
41712;BME280;27399;51.516;13.670;2023-03-18T09:17:47;100243.09;;;12.38;54.36
41712;BME280;27399;51.516;13.670;2023-03-18T09:20:15;100240.44;;;12.38;55.33
41712;BME280;27399;51.516;13.670;2023-03-18T09:22:45;100244.09;;;12.33;55.21
41712;BME280;27399;51.516;13.670;2023-03-18T09:25:11;100249.09;;;12.51;55.09
41712;BME280;27399;51.516;13.670;2023-03-18T09:27:37;100242.88;;;12.49;55.11
41712;BME280;27399;51.516;13.670;2023-03-18T09:30:03;100238.22;;;12.61;54.83
41712;BME280;27399;51.516;13.670;2023-03-18T09:32:29;100240.06;;;12.57;55.44
41712;BME280;27399;51.516;13.670;2023-03-18T09:34:55;100239.22;;;12.99;55.42
41712;BME280;27399;51.516;13.670;2023-03-18T09:37:21;100223.38;;;12.90;54.99
41712;BME280;27399;51.516;13.670;2023-03-18T09:39:46;100230.84;;;13.14;54.42
41712;BME280;27399;51.516;13.670;2023-03-18T09:44:41;100236.94;;;13.23;54.87
41712;BME280;27399;51.516;13.670;2023-03-18T09:52:28;100226.06;;;13.70;55.07
41712;BME280;27399;51.516;13.670;2023-03-18T09:57:42;100227.38;;;13.88;55.02
41712;BME280;27399;51.516;13.670;2023-03-18T10:00:33;100237.78;;;14.00;54.94
41712;BME280;27399;51.516;13.670;2023-03-18T10:03:03;100239.06;;;14.20;55.23
41712;BME280;27399;51.516;13.670;2023-03-18T10:05:33;100235.31;;;14.27;54.79
41712;BME280;27399;51.516;13.670;2023-03-18T10:08:13;100238.09;;;14.55;55.55
41712;BME280;27399;51.516;13.670;2023-03-18T10:10:44;100226.69;;;14.49;54.74
41712;BME280;27399;51.516;13.670;2023-03-18T10:16:28;100230.66;;;14.98;54.34
41712;BME280;27399;51.516;13.670;2023-03-18T10:18:55;100234.06;;;14.74;54.96
41712;BME280;27399;51.516;13.670;2023-03-18T10:21:44;100233.28;;;15.01;54.29
41712;BME280;27399;51.516;13.670;2023-03-18T10:24:35;100233.00;;;15.11;54.74
41712;BME280;27399;51.516;13.670;2023-03-18T10:27:36;100241.69;;;15.19;54.45
41712;BME280;27399;51.516;13.670;2023-03-18T10:33:21;100244.19;;;14.95;54.61
41712;BME280;27399;51.516;13.670;2023-03-18T10:35:59;100245.78;;;15.02;54.77
41712;BME280;27399;51.516;13.670;2023-03-18T10:38:30;100246.41;;;15.11;55.26
41712;BME280;27399;51.516;13.670;2023-03-18T10:40:59;100238.03;;;14.92;54.85
41712;BME280;27399;51.516;13.670;2023-03-18T10:43:29;100240.16;;;15.10;54.97
41712;BME280;27399;51.516;13.670;2023-03-18T10:46:01;100240.63;;;14.95;55.04
41712;BME280;27399;51.516;13.670;2023-03-18T10:48:33;100248.06;;;15.15;55.04
41712;BME280;27399;51.516;13.670;2023-03-18T10:56:15;100249.31;;;15.33;55.30
41712;BME280;27399;51.516;13.670;2023-03-18T10:58:42;100248.72;;;15.23;55.25
41712;BME280;27399;51.516;13.670;2023-03-18T11:01:10;100250.38;;;15.27;55.11
41712;BME280;27399;51.516;13.670;2023-03-18T11:03:41;100248.25;;;15.39;55.39
41712;BME280;27399;51.516;13.670;2023-03-18T11:06:20;100252.47;;;15.47;56.18
41712;BME280;27399;51.516;13.670;2023-03-18T11:08:48;100255.19;;;15.46;55.75
41712;BME280;27399;51.516;13.670;2023-03-18T11:11:18;100255.41;;;15.67;55.06
41712;BME280;27399;51.516;13.670;2023-03-18T11:13:52;100251.88;;;15.66;55.52
41712;BME280;27399;51.516;13.670;2023-03-18T11:16:38;100253.16;;;15.81;55.65
41712;BME280;27399;51.516;13.670;2023-03-18T11:24:39;100247.84;;;16.08;55.89
41712;BME280;27399;51.516;13.670;2023-03-18T11:32:35;100241.47;;;16.10;55.40
41712;BME280;27399;51.516;13.670;2023-03-18T11:35:06;100242.56;;;16.05;55.19
41712;BME280;27399;51.516;13.670;2023-03-18T11:37:39;100233.00;;;16.21;55.75
41712;BME280;27399;51.516;13.670;2023-03-18T11:40:21;100240.38;;;15.89;55.50
41712;BME280;27399;51.516;13.670;2023-03-18T11:42:54;100238.47;;;16.20;55.54
41712;BME280;27399;51.516;13.670;2023-03-18T11:45:30;100239.00;;;16.30;55.00
41712;BME280;27399;51.516;13.670;2023-03-18T11:47:59;100233.59;;;16.04;54.67
41712;BME280;27399;51.516;13.670;2023-03-18T11:50:53;100231.53;;;16.13;55.31
41712;BME280;27399;51.516;13.670;2023-03-18T11:53:29;100225.78;;;16.23;54.38
41712;BME280;27399;51.516;13.670;2023-03-18T11:56:02;100231.88;;;16.29;54.41
41712;BME280;27399;51.516;13.670;2023-03-18T12:01:29;100227.00;;;16.40;54.31
41712;BME280;27399;51.516;13.670;2023-03-18T12:06:48;100232.16;;;16.46;54.56
41712;BME280;27399;51.516;13.670;2023-03-18T12:20:48;100235.63;;;16.99;53.93
41712;BME280;27399;51.516;13.670;2023-03-18T12:26:10;100220.97;;;17.06;53.48
41712;BME280;27399;51.516;13.670;2023-03-18T12:31:59;100215.22;;;17.15;53.35
41712;BME280;27399;51.516;13.670;2023-03-18T12:37:27;100222.16;;;17.23;53.96
41712;BME280;27399;51.516;13.670;2023-03-18T12:40:07;100219.41;;;17.00;53.43
41712;BME280;27399;51.516;13.670;2023-03-18T12:42:49;100216.06;;;16.94;53.67
41712;BME280;27399;51.516;13.670;2023-03-18T12:45:22;100214.56;;;17.10;53.63
41712;BME280;27399;51.516;13.670;2023-03-18T12:48:12;100219.41;;;17.46;53.86
41712;BME280;27399;51.516;13.670;2023-03-18T12:50:43;100220.19;;;17.50;53.72
41712;BME280;27399;51.516;13.670;2023-03-18T12:53:17;100215.91;;;17.44;53.73
41712;BME280;27399;51.516;13.670;2023-03-18T12:55:59;100218.47;;;17.47;53.63
41712;BME280;27399;51.516;13.670;2023-03-18T12:58:30;100227.19;;;17.32;53.98
41712;BME280;27399;51.516;13.670;2023-03-18T13:04:05;100222.88;;;17.72;52.31
41712;BME280;27399;51.516;13.670;2023-03-18T13:06:38;100226.25;;;18.00;53.20
41712;BME280;27399;51.516;13.670;2023-03-18T13:16:58;100209.53;;;18.33;52.80
41712;BME280;27399;51.516;13.670;2023-03-18T13:19:25;100210.69;;;18.06;52.86
41712;BME280;27399;51.516;13.670;2023-03-18T13:27:44;100208.84;;;18.48;53.06
41712;BME280;27399;51.516;13.670;2023-03-18T13:30:34;100200.50;;;18.34;51.46
41712;BME280;27399;51.516;13.670;2023-03-18T13:44:20;100180.22;;;19.04;51.20
41712;BME280;27399;51.516;13.670;2023-03-18T13:47:02;100188.66;;;19.16;51.69
41712;BME280;27399;51.516;13.670;2023-03-18T13:49:30;100187.94;;;19.31;51.26
41712;BME280;27399;51.516;13.670;2023-03-18T13:52:00;100191.25;;;19.56;52.18
41712;BME280;27399;51.516;13.670;2023-03-18T13:54:37;100191.09;;;19.22;50.94
41712;BME280;27399;51.516;13.670;2023-03-18T13:57:33;100190.66;;;19.49;51.04
41712;BME280;27399;51.516;13.670;2023-03-18T14:00:22;100197.19;;;19.81;50.57
41712;BME280;27399;51.516;13.670;2023-03-18T14:06:17;100197.19;;;19.45;50.15
41712;BME280;27399;51.516;13.670;2023-03-18T14:13:41;100186.50;;;19.78;49.97
41712;BME280;27399;51.516;13.670;2023-03-18T14:16:08;100192.50;;;19.85;49.80
41712;BME280;27399;51.516;13.670;2023-03-18T14:18:37;100200.41;;;19.53;50.43
41712;BME280;27399;51.516;13.670;2023-03-18T14:21:05;100194.28;;;19.67;50.10
41712;BME280;27399;51.516;13.670;2023-03-18T14:23:42;100190.00;;;19.63;50.38
41712;BME280;27399;51.516;13.670;2023-03-18T14:26:22;100188.19;;;19.81;50.22
41712;BME280;27399;51.516;13.670;2023-03-18T14:29:36;100186.25;;;19.65;50.66
41712;BME280;27399;51.516;13.670;2023-03-18T14:41:59;100173.47;;;19.32;51.56
41712;BME280;27399;51.516;13.670;2023-03-18T14:44:38;100169.47;;;19.22;51.84